Time;durP1;ratioP1;P1;durP2;ratioP2;P2;SDS_P1;SDS_P2;PMS_P1;PMS_P2;Temp;Humidity;BMP_temperature;BMP_pressure;BME280_temperature;BME280_humidity;BME280_pressure;Samples;Min_cycle;Max_cycle;Signal;HPM_P1;HPM_P2
2022/04/26 03:37:33;;;;;;;1.77;0.60;;;22.20;99.90;;;;;;4994534;28;20069;-67
2022/04/26 03:40:00;;;;;;;1.48;0.50;;;22.30;99.90;;;;;;5003958;28;20094;-67
2022/04/26 03:42:27;;;;;;;1.85;0.63;;;22.30;99.90;;;;;;5004419;28;20060;-67
2022/04/26 03:44:54;;;;;;;0.57;0.50;;;22.30;99.90;;;;;;5002106;28;20022;-67
2022/04/26 03:47:21;;;;;;;1.10;0.60;;;22.30;99.90;;;;;;5001754;28;20571;-65
2022/04/26 03:49:48;;;;;;;0.95;0.60;;;22.40;99.90;;;;;;5004170;28;20045;-67
2022/04/26 03:52:15;;;;;;;1.17;0.80;;;22.30;99.90;;;;;;5001950;28;20041;-66
2022/04/26 03:54:42;;;;;;;1.58;0.80;;;22.30;99.90;;;;;;4999361;28;20342;-65
2022/04/26 03:57:10;;;;;;;1.98;0.60;;;22.30;99.90;;;;;;4994678;28;20485;-67
2022/04/26 03:59:37;;;;;;;0.85;0.60;;;22.20;99.90;;;;;;4994718;28;20473;-68
2022/04/26 04:02:04;;;;;;;1.20;0.70;;;22.40;99.90;;;;;;4996196;28;20022;-66
2022/04/26 04:04:31;;;;;;;3.22;0.70;;;22.40;99.90;;;;;;4989118;28;20026;-67
2022/04/26 04:07:00;;;;;;;1.15;0.70;;;22.40;99.90;;;;;;4993220;28;20022;-66
2022/04/26 04:09:27;;;;;;;1.13;0.55;;;22.40;99.90;;;;;;4305678;28;10000751;-67
2022/04/26 04:11:53;;;;;;;1.73;1.00;;;22.40;99.90;;;;;;4986438;28;20029;-67
2022/04/26 04:14:21;;;;;;;3.55;1.33;;;22.50;99.90;;;;;;4987250;28;20026;-67
2022/04/26 04:16:48;;;;;;;2.90;0.75;;;22.40;99.90;;;;;;4993362;28;20109;-67
2022/04/26 04:19:18;;;;;;;1.13;1.00;;;22.30;99.90;;;;;;4996975;28;20172;-66
2022/04/26 04:21:46;;;;;;;3.30;0.90;;;22.10;99.90;;;;;;4988048;28;20027;-66
2022/04/26 04:24:14;;;;;;;1.88;0.93;;;22.00;99.90;;;;;;4983264;28;20031;-68
2022/04/26 04:26:41;;;;;;;1.80;0.60;;;22.10;99.90;;;;;;4982924;28;20038;-68
2022/04/26 04:29:08;;;;;;;0.82;0.70;;;22.10;99.90;;;;;;4991607;28;20065;-69
2022/04/26 04:31:35;;;;;;;2.70;1.00;;;22.10;99.90;;;;;;4983755;28;20058;-65
2022/04/26 04:34:02;;;;;;;3.33;0.90;;;22.20;99.90;;;;;;4985349;28;20088;-66
2022/04/26 04:36:29;;;;;;;0.70;0.70;;;22.20;99.90;;;;;;4983197;28;20026;-64
2022/04/26 04:38:57;;;;;;;1.40;0.68;;;22.30;99.90;;;;;;4982943;28;20085;-65
2022/04/26 04:41:24;;;;;;;1.48;0.80;;;22.40;99.90;;;;;;4992429;28;20023;-65
2022/04/26 04:43:51;;;;;;;1.05;0.70;;;22.50;99.90;;;;;;4986412;28;20034;-64
2022/04/26 04:46:18;;;;;;;1.10;0.75;;;22.50;99.90;;;;;;4981085;28;20033;-66
2022/04/26 04:48:45;;;;;;;1.83;0.65;;;22.50;99.90;;;;;;4985484;28;20030;-65
2022/04/26 04:51:15;;;;;;;0.95;0.75;;;22.50;99.90;;;;;;4992448;28;20362;-66
2022/04/26 04:53:41;;;;;;;1.65;0.63;;;22.60;99.90;;;;;;4986075;28;20113;-65
2022/04/26 04:56:10;;;;;;;1.77;0.82;;;22.60;99.90;;;;;;4985109;28;20157;-64
2022/04/26 04:58:37;;;;;;;2.28;1.35;;;22.50;99.90;;;;;;5000023;28;20022;-64
2022/04/26 05:01:04;;;;;;;1.60;0.80;;;22.50;99.90;;;;;;4988625;28;20037;-65
2022/04/26 05:03:31;;;;;;;2.60;1.00;;;22.60;99.90;;;;;;4989281;28;20056;-64
2022/04/26 05:05:58;;;;;;;1.17;0.60;;;22.50;99.90;;;;;;4987268;28;20080;-64
2022/04/26 05:08:25;;;;;;;0.82;0.52;;;22.60;99.90;;;;;;4992051;28;20535;-65
2022/04/26 05:10:52;;;;;;;1.77;1.00;;;22.60;99.90;;;;;;4989173;28;20098;-64
2022/04/26 05:13:20;;;;;;;1.02;0.90;;;22.60;99.90;;;;;;4995278;28;20025;-66
2022/04/26 05:15:47;;;;;;;2.78;0.98;;;22.40;99.90;;;;;;4996277;28;20022;-64
2022/04/26 05:18:14;;;;;;;2.75;0.73;;;22.40;99.90;;;;;;4985890;28;20034;-65
2022/04/26 05:20:43;;;;;;;1.77;0.70;;;22.40;99.90;;;;;;4988489;28;20038;-64
2022/04/26 05:25:55;;;;;;;1.83;0.80;;;22.00;99.90;;;;;;4999400;28;20041;-64
2022/04/26 05:28:22;;;;;;;0.90;0.57;;;21.90;99.90;;;;;;4985674;28;20030;-65
2022/04/26 05:30:50;;;;;;;1.92;0.90;;;21.80;99.90;;;;;;4971413;28;20535;-64
2022/04/26 05:33:18;;;;;;;1.20;0.70;;;21.80;99.90;;;;;;4986882;28;20436;-64
2022/04/26 05:35:45;;;;;;;0.73;0.57;;;21.80;99.90;;;;;;4987739;28;20038;-66
2022/04/26 05:38:12;;;;;;;0.85;0.70;;;21.70;99.90;;;;;;4985084;28;20133;-65
2022/04/26 05:40:38;;;;;;;1.45;0.80;;;21.60;99.90;;;;;;4986855;28;20436;-65
2022/04/26 05:43:05;;;;;;;1.45;0.80;;;21.50;99.90;;;;;;4992400;28;20113;-64
2022/04/26 05:45:32;;;;;;;1.50;0.88;;;21.40;99.90;;;;;;4986859;28;20486;-68
2022/04/26 05:47:59;;;;;;;1.52;0.70;;;21.40;99.90;;;;;;4986800;28;20102;-66
2022/04/26 05:50:26;;;;;;;1.50;0.65;;;21.40;99.90;;;;;;4989983;28;20422;-65
2022/04/26 05:52:53;;;;;;;2.42;0.95;;;21.30;99.90;;;;;;4985254;28;20030;-65
2022/04/26 05:55:20;;;;;;;1.98;0.90;;;21.20;99.90;;;;;;4985633;28;20121;-67
2022/04/26 05:57:47;;;;;;;2.58;1.00;;;21.10;99.90;;;;;;4984665;28;20030;-63
2022/04/26 06:00:15;;;;;;;2.80;1.23;;;21.00;99.90;;;;;;4985013;28;20023;-67
2022/04/26 06:02:42;;;;;;;1.83;1.05;;;21.00;99.90;;;;;;4982887;28;20026;-67
2022/04/26 06:05:10;;;;;;;1.63;1.10;;;21.00;99.90;;;;;;4984841;28;20719;-66
2022/04/26 06:07:37;;;;;;;2.67;1.08;;;20.90;99.90;;;;;;4985976;28;20033;-67
2022/04/26 06:10:04;;;;;;;2.50;1.40;;;20.80;99.90;;;;;;4984522;28;20038;-65
2022/04/26 06:12:33;;;;;;;1.67;1.00;;;20.80;99.90;;;;;;4984018;28;20487;-67
2022/04/26 06:15:00;;;;;;;1.20;0.60;;;20.60;99.90;;;;;;4984062;28;20100;-66
2022/04/26 06:17:27;;;;;;;2.42;0.75;;;20.50;99.90;;;;;;4983509;28;20041;-66
2022/04/26 06:19:54;;;;;;;1.92;0.82;;;20.40;99.90;;;;;;4984269;28;20042;-67
2022/04/26 06:22:21;;;;;;;2.17;0.90;;;20.30;99.90;;;;;;4985529;28;20026;-69
2022/04/26 06:24:50;;;;;;;1.58;0.80;;;20.20;99.90;;;;;;4984604;28;20028;-66
2022/04/26 06:27:18;;;;;;;1.67;0.60;;;20.20;99.90;;;;;;4987252;28;20029;-65
2022/04/26 06:29:45;;;;;;;1.05;0.68;;;20.30;99.90;;;;;;4984423;28;20026;-68
2022/04/26 06:32:12;;;;;;;1.27;0.73;;;20.30;99.90;;;;;;4985408;28;20023;-66
2022/04/26 06:34:39;;;;;;;3.08;1.10;;;20.10;99.90;;;;;;4986061;28;20057;-65
2022/04/26 06:37:06;;;;;;;2.83;1.10;;;20.10;99.90;;;;;;4982958;28;20035;-65
2022/04/26 06:39:33;;;;;;;3.97;1.23;;;20.00;99.90;;;;;;4984013;28;20138;-65
2022/04/26 06:41:59;;;;;;;2.40;0.98;;;20.10;99.90;;;;;;4985867;28;20022;-65
2022/04/26 06:44:26;;;;;;;2.45;1.33;;;20.10;99.90;;;;;;4985642;28;20548;-65
2022/04/26 06:46:53;;;;;;;2.55;1.23;;;20.00;99.90;;;;;;4986563;28;20018;-65
2022/04/26 06:49:20;;;;;;;1.88;1.17;;;20.00;99.90;;;;;;4983578;28;20046;-66
2022/04/26 06:51:47;;;;;;;2.45;1.20;;;19.90;99.90;;;;;;4983943;28;20026;-67
2022/04/26 06:54:16;;;;;;;1.27;0.90;;;19.80;99.90;;;;;;4981926;28;20058;-64
2022/04/26 06:56:46;;;;;;;2.80;1.05;;;19.80;99.90;;;;;;4982959;28;20123;-67
2022/04/26 06:59:13;;;;;;;3.35;1.25;;;19.70;99.90;;;;;;4985240;28;20100;-64
2022/04/26 07:01:40;;;;;;;3.72;2.80;;;19.60;99.90;;;;;;4983176;28;20068;-64
2022/04/26 07:04:08;;;;;;;5.20;2.47;;;19.40;99.90;;;;;;4985594;28;20030;-64
2022/04/26 07:06:35;;;;;;;4.43;2.40;;;19.40;99.90;;;;;;4985653;28;20032;-67
2022/04/26 07:09:03;;;;;;;1.70;1.30;;;19.30;99.90;;;;;;4983061;28;20030;-64
2022/04/26 07:11:30;;;;;;;2.80;1.52;;;19.20;99.90;;;;;;4984927;28;20391;-64
2022/04/26 07:13:58;;;;;;;5.75;4.63;;;19.10;99.90;;;;;;4983349;28;20061;-65
2022/04/26 07:16:25;;;;;;;2.33;1.80;;;19.10;99.90;;;;;;4983084;28;20053;-66
2022/04/26 07:18:52;;;;;;;2.78;1.75;;;19.00;99.90;;;;;;4983086;28;20511;-67
2022/04/26 07:21:19;;;;;;;4.57;3.17;;;19.00;99.90;;;;;;4984558;28;20033;-68
2022/04/26 07:23:46;;;;;;;6.22;4.30;;;18.90;99.90;;;;;;4984974;28;20022;-66
2022/04/26 07:26:14;;;;;;;1.92;1.20;;;18.90;99.90;;;;;;4986570;28;20105;-66
2022/04/26 07:28:41;;;;;;;8.48;5.65;;;18.90;99.90;;;;;;4986725;28;20041;-64
2022/04/26 07:31:08;;;;;;;4.28;2.13;;;18.90;99.90;;;;;;4984864;28;20551;-65
2022/04/26 07:36:22;;;;;;;4.15;3.15;;;18.90;99.90;;;;;;4983030;28;20040;-64
2022/04/26 07:38:52;;;;;;;5.25;2.90;;;19.00;99.90;;;;;;4984353;28;20058;-64
2022/04/26 07:41:19;;;;;;;5.68;3.38;;;19.00;99.90;;;;;;4984028;28;20030;-66
2022/04/26 07:43:46;;;;;;;9.80;6.28;;;18.90;99.90;;;;;;4986767;28;20030;-65
2022/04/26 07:46:17;;;;;;;6.53;2.85;;;19.00;99.90;;;;;;4985798;28;20034;-67
2022/04/26 07:48:44;;;;;;;7.88;5.32;;;19.00;99.90;;;;;;4985275;28;20038;-68
2022/04/26 07:51:11;;;;;;;5.93;3.42;;;19.00;99.90;;;;;;4982487;28;20049;-68
2022/04/26 07:53:39;;;;;;;3.35;1.60;;;18.90;99.90;;;;;;4983417;28;20030;-65
2022/04/26 07:56:06;;;;;;;3.78;1.52;;;18.80;99.90;;;;;;4983992;28;20034;-68
2022/04/26 07:58:33;;;;;;;2.35;1.40;;;18.80;99.90;;;;;;4984130;28;20504;-65
2022/04/26 08:01:01;;;;;;;4.97;1.70;;;18.80;99.90;;;;;;4983781;28;20181;-65
2022/04/26 08:03:28;;;;;;;2.83;1.30;;;18.80;99.90;;;;;;4983226;28;20081;-65
2022/04/26 08:05:55;;;;;;;3.50;1.73;;;18.60;99.90;;;;;;4982373;28;20089;-66
2022/04/26 08:08:22;;;;;;;3.63;1.58;;;18.60;99.90;;;;;;4984202;28;20042;-66
2022/04/26 08:10:49;;;;;;;2.63;1.38;;;18.50;99.90;;;;;;4984984;28;20347;-68
2022/04/26 08:13:16;;;;;;;2.88;1.38;;;18.40;99.90;;;;;;4987170;28;20030;-66
2022/04/26 08:15:44;;;;;;;3.58;1.60;;;18.40;99.90;;;;;;4983871;28;20250;-68
2022/04/26 08:18:11;;;;;;;4.35;1.50;;;18.40;99.90;;;;;;4984449;28;20030;-65
2022/04/26 08:20:38;;;;;;;5.38;1.38;;;18.50;99.90;;;;;;4982620;28;20030;-63
2022/04/26 08:23:10;;;;;;;4.28;1.55;;;18.60;99.90;;;;;;4982702;28;20049;-62
2022/04/26 08:28:22;;;;;;;2.55;1.52;;;18.80;99.90;;;;;;4983806;28;20104;-65
2022/04/26 08:30:50;;;;;;;4.45;1.67;;;18.80;99.90;;;;;;4984287;28;20177;-67
2022/04/26 08:33:17;;;;;;;1.90;1.35;;;18.90;99.90;;;;;;4981687;28;20037;-67
2022/04/26 08:35:44;;;;;;;3.03;1.95;;;18.80;99.90;;;;;;4987166;28;20061;-67
2022/04/26 08:38:11;;;;;;;2.65;1.30;;;18.70;99.90;;;;;;4983209;28;20058;-67
2022/04/26 08:40:41;;;;;;;5.47;1.60;;;18.60;99.90;;;;;;4985025;28;20446;-65
2022/04/26 08:43:08;;;;;;;3.22;1.40;;;18.60;99.90;;;;;;4987026;28;20453;-66
2022/04/26 08:45:40;;;;;;;2.35;1.45;;;18.50;99.90;;;;;;4985362;28;20079;-62
2022/04/26 08:51:00;;;;;;;3.55;1.80;;;18.30;99.90;;;;;;4982443;28;20044;-66
2022/04/26 08:53:28;;;;;;;2.95;1.88;;;18.20;99.90;;;;;;4983776;28;20042;-67
2022/04/26 08:55:57;;;;;;;2.65;1.40;;;18.30;99.90;;;;;;4985565;28;20592;-69
2022/04/26 08:58:27;;;;;;;3.92;1.70;;;18.30;99.90;;;;;;4985145;28;20463;-68
2022/04/26 09:01:22;;;;;;;3.97;1.83;;;18.20;99.90;;;;;;4981638;28;20421;-70
2022/04/26 09:03:55;;;;;;;5.38;2.40;;;18.20;99.90;;;;;;4982013;28;20104;-65
2022/04/26 09:06:32;;;;;;;3.13;1.70;;;18.20;99.90;;;;;;4983117;28;20099;-71
2022/04/26 09:09:18;;;;;;;4.70;1.92;;;18.20;99.90;;;;;;4981201;28;20034;-69
2022/04/26 09:11:46;;;;;;;3.22;1.80;;;18.20;99.90;;;;;;4984085;28;20389;-71
2022/04/26 09:14:34;;;;;;;4.07;2.00;;;18.30;99.90;;;;;;4984380;28;20555;-75
2022/04/26 09:17:12;;;;;;;4.82;2.08;;;18.30;99.90;;;;;;4985842;28;20026;-75
2022/04/26 09:19:55;;;;;;;5.82;1.90;;;18.30;99.90;;;;;;4988903;28;20026;-66
2022/04/26 09:22:25;;;;;;;3.17;2.00;;;18.30;99.90;;;;;;4987333;28;20061;-67
2022/04/26 09:25:04;;;;;;;3.35;2.10;;;18.20;99.90;;;;;;4986588;28;20034;-67
2022/04/26 09:27:36;;;;;;;5.05;2.03;;;18.20;99.90;;;;;;4980413;28;20599;-66
2022/04/26 09:30:11;;;;;;;4.00;1.58;;;18.20;99.90;;;;;;4981954;28;20018;-67
2022/04/26 09:32:49;;;;;;;2.20;1.60;;;18.30;99.90;;;;;;4981065;28;20026;-64
2022/04/26 09:35:32;;;;;;;4.45;2.20;;;18.30;99.90;;;;;;4983957;28;20080;-68
2022/04/26 09:38:00;;;;;;;4.25;1.92;;;18.40;99.90;;;;;;4978185;28;20043;-70
2022/04/26 09:40:33;;;;;;;5.65;2.53;;;18.30;99.90;;;;;;4981214;28;20054;-68
2022/04/26 09:43:00;;;;;;;6.07;2.20;;;18.20;99.90;;;;;;4982776;28;20027;-69
2022/04/26 09:45:27;;;;;;;5.68;2.17;;;18.10;99.90;;;;;;4980048;28;20022;-68
2022/04/26 09:47:58;;;;;;;7.50;2.95;;;18.10;99.90;;;;;;4980965;28;20041;-68
2022/04/26 09:50:27;;;;;;;8.88;3.05;;;18.00;99.90;;;;;;4982746;28;20317;-69
2022/04/26 09:52:55;;;;;;;5.70;3.38;;;17.90;99.90;;;;;;4984799;28;20093;-63
2022/04/26 09:55:23;;;;;;;6.60;2.80;;;17.80;99.90;;;;;;4981947;28;20026;-68
2022/04/26 09:57:51;;;;;;;7.57;2.42;;;17.70;99.90;;;;;;4980104;28;20068;-67
2022/04/26 10:00:19;;;;;;;5.88;3.15;;;17.70;99.90;;;;;;4982463;28;20026;-65
2022/04/26 10:02:56;;;;;;;8.38;3.38;;;17.70;99.90;;;;;;4982289;28;20190;-68
2022/04/26 10:05:30;;;;;;;5.88;2.90;;;17.70;99.90;;;;;;4985448;28;20444;-68
2022/04/26 10:07:58;;;;;;;7.05;3.13;;;17.60;99.90;;;;;;4984567;28;20301;-63
2022/04/26 10:10:27;;;;;;;4.47;2.80;;;17.60;99.90;;;;;;4982035;28;20026;-68
2022/04/26 10:15:57;;;;;;;8.85;4.45;;;17.60;99.90;;;;;;4945275;28;20039;-66
2022/04/26 10:18:31;;;;;;;7.05;3.78;;;17.60;99.90;;;;;;4941883;28;20423;-66
2022/04/26 10:20:59;;;;;;;7.53;3.60;;;17.50;99.90;;;;;;4943727;28;20042;-65
2022/04/26 10:23:26;;;;;;;5.63;3.42;;;17.50;99.90;;;;;;4940811;28;20070;-69
2022/04/26 10:26:23;;;;;;;6.13;4.25;;;17.60;99.90;;;;;;4941719;28;20023;-69
2022/04/26 10:29:01;;;;;;;8.07;3.83;;;17.60;99.90;;;;;;4945838;28;20109;-70
2022/04/26 10:31:37;;;;;;;7.90;3.40;;;17.60;99.90;;;;;;4942802;28;20094;-69
2022/04/26 10:34:28;;;;;;;8.02;5.95;;;17.50;99.90;;;;;;4938305;28;20442;-68
2022/04/26 10:36:57;;;;;;;5.13;4.10;;;17.40;99.90;;;;;;4984291;23;20349;-66
2022/04/26 10:39:25;;;;;;;5.60;3.55;;;17.40;99.90;;;;;;4996307;28;20057;-69
2022/04/26 10:41:53;;;;;;;6.22;4.35;;;17.30;99.90;;;;;;4999901;28;20022;-64
2022/04/26 10:44:21;;;;;;;5.57;3.90;;;17.30;99.90;;;;;;4996486;28;20097;-68
2022/04/26 10:47:00;;;;;;;8.88;4.25;;;17.30;99.90;;;;;;4998271;28;20292;-68
2022/04/26 10:49:38;;;;;;;8.35;5.03;;;17.30;99.90;;;;;;4998273;28;20625;-69
2022/04/26 10:52:14;;;;;;;5.65;4.28;;;17.20;99.90;;;;;;4998879;28;20131;-65
2022/04/26 10:54:58;;;;;;;4.43;3.72;;;17.20;99.90;;;;;;4995383;28;20036;-68
2022/04/26 10:57:29;;;;;;;7.10;5.53;;;17.20;99.90;;;;;;4996768;28;20018;-65
2022/04/26 10:59:59;;;;;;;7.78;4.55;;;17.20;99.90;;;;;;4998189;28;20057;-63
2022/04/26 11:02:29;;;;;;;6.68;4.57;;;17.20;99.90;;;;;;4998391;28;20022;-65
2022/04/26 11:04:58;;;;;;;9.23;4.90;;;17.10;99.90;;;;;;4999177;28;20060;-64
2022/04/26 11:07:29;;;;;;;8.48;4.97;;;17.00;99.90;;;;;;4999547;28;20052;-66
2022/04/26 11:09:58;;;;;;;10.57;8.48;;;16.90;99.90;;;;;;5000858;28;20761;-68
2022/04/26 11:12:33;;;;;;;7.35;5.07;;;16.90;99.90;;;;;;5000907;28;20025;-68
2022/04/26 11:15:21;;;;;;;9.05;4.30;;;16.90;99.90;;;;;;5001221;28;20083;-69
2022/04/26 11:17:50;;;;;;;7.63;5.32;;;16.90;99.90;;;;;;5002131;28;20174;-68
2022/04/26 11:20:20;;;;;;;10.32;6.57;;;17.00;99.90;;;;;;5001336;28;20034;-68
2022/04/26 11:22:58;;;;;;;8.93;6.35;;;17.10;99.90;;;;;;5001686;28;20025;-68
2022/04/26 11:28:14;;;;;;;11.00;7.88;;;17.10;99.90;;;;;;4999565;28;20117;-66
2022/04/26 11:30:51;;;;;;;12.35;7.57;;;17.00;99.90;;;;;;4999432;28;20544;-69
2022/04/26 11:33:24;;;;;;;10.95;8.73;;;17.00;99.90;;;;;;5000996;28;20121;-65
2022/04/26 11:36:02;;;;;;;13.18;9.98;;;16.90;99.90;;;;;;5000828;28;20531;-69
2022/04/26 11:38:30;;;;;;;10.02;7.90;;;16.90;99.90;;;;;;4998650;28;20057;-64
2022/04/26 11:40:59;;;;;;;7.93;6.22;;;16.80;99.90;;;;;;4998911;28;20622;-68
2022/04/26 11:43:31;;;;;;;8.02;5.28;;;16.80;99.90;;;;;;4998481;28;20025;-63
2022/04/26 11:45:59;;;;;;;5.23;3.53;;;16.90;99.90;;;;;;5000128;28;20156;-64
2022/04/26 11:48:29;;;;;;;8.77;3.97;;;16.90;99.90;;;;;;5001210;28;20022;-64
2022/04/26 11:50:58;;;;;;;7.75;5.10;;;16.90;99.90;;;;;;5001789;28;20140;-70
2022/04/26 11:53:30;;;;;;;6.78;4.40;;;16.90;99.90;;;;;;4997121;28;20030;-68
2022/04/26 11:56:03;;;;;;;8.48;5.80;;;16.90;99.90;;;;;;5002427;28;20030;-71
2022/04/26 11:58:34;;;;;;;6.25;3.92;;;16.80;99.90;;;;;;4999675;28;20468;-70
2022/04/26 12:01:17;;;;;;;5.87;3.73;;;17.00;99.90;;;;;;4998020;28;20109;-71
2022/04/26 12:03:53;;;;;;;8.30;3.75;;;17.00;99.90;;;;;;5013964;28;20026;-69
2022/04/26 12:06:25;;;;;;;5.47;3.15;;;17.00;99.90;;;;;;4985219;28;20845;-68
2022/04/26 12:09:01;;;;;;;5.50;3.05;;;16.90;99.90;;;;;;4998108;28;20038;-67
2022/04/26 12:11:35;;;;;;;5.35;3.50;;;16.90;99.90;;;;;;4994592;28;20035;-69
2022/04/26 12:14:07;;;;;;;6.68;4.90;;;16.90;99.90;;;;;;4992618;28;20385;-67
2022/04/26 12:16:55;;;;;;;7.80;6.72;;;16.90;99.90;;;;;;4991434;28;20022;-67
2022/04/26 12:19:38;;;;;;;8.23;5.78;;;16.90;99.90;;;;;;4995288;28;20477;-67
2022/04/26 12:22:06;;;;;;;8.90;7.57;;;16.90;99.90;;;;;;4998019;28;20042;-70
2022/04/26 12:24:44;;;;;;;10.38;7.70;;;16.80;99.90;;;;;;5000069;28;20033;-70
2022/04/26 12:27:26;;;;;;;9.82;7.57;;;16.80;99.90;;;;;;4995359;28;20026;-68
2022/04/26 12:29:53;;;;;;;10.45;7.63;;;16.70;99.90;;;;;;4990770;28;20140;-70
2022/04/26 12:32:26;;;;;;;9.25;7.00;;;16.60;99.90;;;;;;4982471;28;20117;-66
2022/04/26 12:34:56;;;;;;;11.15;9.02;;;16.60;99.90;;;;;;4995433;28;20477;-69
2022/04/26 12:37:26;;;;;;;11.85;7.82;;;16.60;99.90;;;;;;4994706;28;20038;-68
2022/04/26 12:39:58;;;;;;;10.32;7.40;;;16.60;99.90;;;;;;4988066;28;20115;-68
2022/04/26 12:42:28;;;;;;;12.15;7.80;;;16.60;99.90;;;;;;4996545;28;20029;-68
2022/04/26 12:45:25;;;;;;;9.60;8.07;;;16.60;99.90;;;;;;4987681;28;20031;-68
2022/04/26 12:51:11;;;;;;;11.35;7.43;;;16.60;99.90;;;;;;4996614;28;20388;-70
2022/04/26 12:53:40;;;;;;;10.07;8.02;;;16.60;99.90;;;;;;4994643;28;20045;-70
2022/04/26 12:56:08;;;;;;;13.68;7.80;;;16.50;99.90;;;;;;4985069;28;20038;-70
2022/04/26 12:58:38;;;;;;;11.30;7.45;;;16.60;99.90;;;;;;5002113;28;20026;-67
2022/04/26 13:01:06;;;;;;;9.95;8.55;;;16.50;99.90;;;;;;4989279;28;20106;-70
2022/04/26 13:03:35;;;;;;;13.93;9.35;;;16.50;99.90;;;;;;4990762;28;20053;-68
2022/04/26 13:06:17;;;;;;;13.18;10.38;;;16.60;99.90;;;;;;4997109;28;20026;-70
2022/04/26 13:08:49;;;;;;;11.35;10.25;;;16.70;99.90;;;;;;4996459;28;20109;-69
2022/04/26 13:11:18;;;;;;;10.85;9.73;;;16.70;99.90;;;;;;4989398;28;20034;-71
2022/04/26 13:13:48;;;;;;;12.85;9.43;;;16.70;99.90;;;;;;5002008;28;20040;-68
2022/04/26 13:16:15;;;;;;;12.30;9.77;;;16.70;99.90;;;;;;4997059;28;20129;-68
2022/04/26 13:18:42;;;;;;;11.50;10.00;;;16.60;99.90;;;;;;4992541;28;20370;-70
2022/04/26 13:21:09;;;;;;;10.48;9.38;;;16.60;99.90;;;;;;4991040;28;20021;-71
2022/04/26 13:23:38;;;;;;;12.55;10.20;;;16.60;99.90;;;;;;5002706;28;20726;-70
2022/04/26 13:26:06;;;;;;;10.65;9.23;;;16.60;99.90;;;;;;4998420;28;20101;-66
2022/04/26 13:28:34;;;;;;;10.52;8.27;;;16.60;99.90;;;;;;4991726;28;20081;-67
2022/04/26 13:31:01;;;;;;;9.10;8.20;;;16.60;99.90;;;;;;5007331;28;20545;-68
2022/04/26 13:33:30;;;;;;;10.48;8.65;;;16.50;99.90;;;;;;4994579;28;20022;-66
2022/04/26 13:35:57;;;;;;;11.50;9.05;;;16.40;99.90;;;;;;4994836;28;20440;-65
2022/04/26 13:38:24;;;;;;;12.57;9.52;;;16.40;99.90;;;;;;5000880;28;20045;-70
2022/04/26 13:40:53;;;;;;;9.27;8.13;;;16.50;99.90;;;;;;4994237;28;20096;-64
2022/04/26 13:43:23;;;;;;;9.55;7.40;;;16.40;99.90;;;;;;5001948;28;20019;-67
2022/04/26 13:45:51;;;;;;;11.40;7.50;;;16.40;99.90;;;;;;4994554;28;20092;-66
2022/04/26 13:48:18;;;;;;;12.40;8.00;;;16.40;99.90;;;;;;4998129;28;20053;-67
2022/04/26 13:50:45;;;;;;;7.85;6.50;;;16.40;99.90;;;;;;4993738;28;20041;-66
2022/04/26 13:53:12;;;;;;;8.75;6.93;;;16.30;99.90;;;;;;4996489;28;20485;-66
2022/04/26 13:55:39;;;;;;;10.88;8.23;;;16.20;99.90;;;;;;4998819;28;20124;-69
2022/04/26 13:58:09;;;;;;;9.90;7.78;;;16.30;99.90;;;;;;4994520;28;20152;-65
2022/04/26 14:00:36;;;;;;;9.40;7.43;;;16.20;99.90;;;;;;5004394;28;20014;-65
2022/04/26 14:03:04;;;;;;;12.23;7.82;;;16.20;99.90;;;;;;5000667;28;20404;-65
2022/04/26 14:05:31;;;;;;;11.52;8.50;;;16.20;99.90;;;;;;4992605;28;20168;-69
2022/04/26 14:07:58;;;;;;;11.13;8.57;;;16.10;99.90;;;;;;4997498;28;20113;-66
2022/04/26 14:10:27;;;;;;;11.35;7.50;;;16.10;99.90;;;;;;4996370;28;20022;-69
2022/04/26 14:12:55;;;;;;;13.30;8.90;;;16.10;99.90;;;;;;5001997;28;20029;-64
2022/04/26 14:23:37;;;;;;;11.93;8.77;;;16.30;99.90;;;;;;4993237;28;20030;-70
2022/04/26 14:26:06;;;;;;;11.57;9.18;;;16.30;99.90;;;;;;5001222;28;20100;-69
2022/04/26 14:28:33;;;;;;;12.10;9.25;;;16.30;99.90;;;;;;4993215;28;20539;-69
2022/04/26 14:31:00;;;;;;;10.57;9.50;;;16.30;99.90;;;;;;5004799;28;20108;-66
2022/04/26 14:33:27;;;;;;;11.40;9.13;;;16.30;99.90;;;;;;4993636;28;20164;-65
2022/04/26 14:35:54;;;;;;;10.90;8.95;;;16.30;99.90;;;;;;4997170;28;20026;-64
2022/04/26 14:38:21;;;;;;;11.75;8.80;;;16.20;99.90;;;;;;4986480;28;20054;-67
2022/04/26 14:40:48;;;;;;;12.85;8.63;;;16.20;99.90;;;;;;5006380;28;20030;-64
2022/04/26 14:43:15;;;;;;;9.38;8.43;;;16.20;99.90;;;;;;4993749;28;20072;-64
2022/04/26 14:45:45;;;;;;;12.88;9.23;;;16.20;99.90;;;;;;4993919;28;20034;-70
2022/04/26 14:48:17;;;;;;;10.52;8.20;;;16.20;99.90;;;;;;4998613;28;20157;-69
2022/04/26 14:50:44;;;;;;;10.02;8.25;;;16.20;99.90;;;;;;5008019;28;20473;-65
2022/04/26 14:53:11;;;;;;;10.00;8.00;;;16.20;99.90;;;;;;5004571;28;20022;-64
2022/04/26 14:55:38;;;;;;;10.15;7.93;;;16.30;99.90;;;;;;5006662;28;20551;-67
2022/04/26 14:58:09;;;;;;;12.52;8.63;;;16.30;99.90;;;;;;5006769;28;20044;-67
2022/04/26 15:00:37;;;;;;;10.38;7.53;;;16.30;99.90;;;;;;4997795;28;20025;-69
2022/04/26 15:03:04;;;;;;;11.50;8.48;;;16.30;99.90;;;;;;4995438;28;20022;-66
2022/04/26 15:05:31;;;;;;;8.32;7.53;;;16.30;99.90;;;;;;4995796;28;20480;-69
2022/04/26 15:10:43;;;;;;;10.93;7.28;;;16.30;99.90;;;;;;4999862;28;20559;-67
2022/04/26 15:18:40;;;;;;;11.52;8.25;;;16.40;99.90;;;;;;4997228;28;20124;-67
2022/04/26 15:21:09;;;;;;;9.18;8.27;;;16.50;99.90;;;;;;4999347;28;20425;-64
2022/04/26 15:23:36;;;;;;;11.52;8.32;;;16.60;99.90;;;;;;4998367;28;20025;-65
2022/04/26 15:26:06;;;;;;;11.13;8.25;;;16.60;99.90;;;;;;4999628;28;20053;-66
2022/04/26 15:28:37;;;;;;;10.95;7.13;;;16.70;99.90;;;;;;5002375;28;20088;-69
2022/04/26 15:31:06;;;;;;;10.32;7.95;;;16.70;99.90;;;;;;4999033;28;20022;-65
2022/04/26 15:33:33;;;;;;;10.88;7.60;;;16.60;99.90;;;;;;4999481;28;20061;-64
2022/04/26 15:36:00;;;;;;;7.82;6.95;;;16.60;99.90;;;;;;5000439;28;20022;-69
2022/04/26 15:38:27;;;;;;;11.13;7.70;;;16.50;99.90;;;;;;4992903;28;20477;-69
2022/04/26 15:41:01;;;;;;;8.85;7.95;;;16.40;99.90;;;;;;4997322;28;20079;-66
2022/04/26 15:43:30;;;;;;;9.45;7.95;;;16.30;99.90;;;;;;5002246;28;20033;-69
2022/04/26 15:45:57;;;;;;;11.48;10.00;;;16.30;99.90;;;;;;4992625;28;20050;-66
2022/04/26 15:48:25;;;;;;;13.30;11.95;;;16.20;99.90;;;;;;4995092;28;20397;-68
2022/04/26 15:50:52;;;;;;;15.45;12.02;;;16.10;99.90;;;;;;5004578;28;20088;-66
2022/04/26 15:53:19;;;;;;;15.45;12.40;;;16.10;99.90;;;;;;4997347;28;20364;-64
2022/04/26 15:55:46;;;;;;;13.93;11.98;;;16.10;99.90;;;;;;5007609;28;20061;-67
2022/04/26 15:58:13;;;;;;;13.10;11.38;;;16.10;99.90;;;;;;5005457;28;20033;-69
2022/04/26 16:00:40;;;;;;;14.15;10.80;;;16.10;99.90;;;;;;5006573;28;20433;-69
2022/04/26 16:03:07;;;;;;;13.75;11.70;;;16.10;99.90;;;;;;4995253;28;20014;-64
2022/04/26 16:05:36;;;;;;;13.75;10.70;;;16.10;99.90;;;;;;4994943;28;20109;-64
2022/04/26 16:08:04;;;;;;;11.57;9.90;;;16.10;99.90;;;;;;4999636;28;20030;-70
2022/04/26 16:21:31;;;;;;;10.18;8.27;;;16.00;99.90;;;;;;4995764;28;20076;-64
2022/04/26 16:24:00;;;;;;;9.88;8.35;;;16.00;99.90;;;;;;4997005;28;20143;-67
2022/04/26 16:26:27;;;;;;;10.48;8.02;;;16.00;99.90;;;;;;4999445;28;20107;-66
2022/04/26 16:28:55;;;;;;;9.75;7.40;;;16.00;99.90;;;;;;5003470;28;20484;-66
2022/04/26 16:31:32;;;;;;;10.93;8.02;;;16.10;99.90;;;;;;5007137;28;20138;-66
2022/04/26 16:34:01;;;;;;;8.82;6.78;;;16.00;99.90;;;;;;4996787;28;20492;-65
2022/04/26 16:36:29;;;;;;;8.88;7.97;;;16.00;99.90;;;;;;4991714;28;20026;-70
2022/04/26 16:38:58;;;;;;;10.63;8.35;;;16.00;99.90;;;;;;4996912;28;20045;-64
2022/04/26 16:41:26;;;;;;;10.85;8.75;;;15.90;99.90;;;;;;5006822;28;20041;-70
2022/04/26 16:43:53;;;;;;;11.32;10.20;;;15.90;99.90;;;;;;4996475;28;20026;-69
2022/04/26 16:46:22;;;;;;;11.82;10.63;;;15.90;99.90;;;;;;4994326;28;20026;-68
2022/04/26 16:48:50;;;;;;;11.35;10.20;;;15.90;99.90;;;;;;4994792;28;20126;-69
2022/04/26 16:51:17;;;;;;;11.98;9.40;;;15.90;99.90;;;;;;4997194;28;20061;-66
2022/04/26 16:53:44;;;;;;;14.68;11.77;;;15.90;99.90;;;;;;5003249;28;20080;-66
2022/04/26 16:56:11;;;;;;;13.18;11.82;;;15.90;99.90;;;;;;4996094;28;20066;-64
2022/04/26 16:58:38;;;;;;;14.27;12.77;;;15.90;99.90;;;;;;5004182;28;20057;-66
2022/04/26 17:01:07;;;;;;;15.63;14.02;;;15.80;99.90;;;;;;4998493;28;20028;-67
2022/04/26 17:03:34;;;;;;;15.73;14.23;;;15.80;99.90;;;;;;5008743;28;20354;-69
2022/04/26 17:06:01;;;;;;;18.10;14.02;;;15.90;99.90;;;;;;4995228;28;20030;-66
2022/04/26 17:08:28;;;;;;;16.80;13.52;;;15.80;99.90;;;;;;5004651;28;20100;-66
2022/04/26 17:11:41;;;;;;;15.20;12.40;;;15.80;99.90;;;;;;5004339;28;20026;-67
2022/04/26 17:13:42;;;;;;;13.48;11.27;;;15.70;99.90;;;;;;5003307;28;20042;-66
2022/04/26 17:16:10;;;;;;;14.00;12.60;;;15.70;99.90;;;;;;5001131;28;20033;-67
2022/04/26 17:18:37;;;;;;;13.80;12.13;;;15.70;99.90;;;;;;5004413;28;20037;-67